createdAt,value
2023-05-04T00:02:10.155Z,48695.09
2023-05-04T00:04:36.992Z,48683.34
2023-05-04T00:07:04.625Z,48667.69
2023-05-04T00:09:31.737Z,48683.34
2023-05-04T00:11:58.457Z,48683.34
2023-05-04T00:14:25.188Z,48669.63
2023-05-04T00:16:51.902Z,48663.75
2023-05-04T00:19:19.588Z,48663.75
2023-05-04T00:21:46.201Z,48675.50
2023-05-04T00:24:13.166Z,48673.56
2023-05-04T00:26:40.553Z,48667.69
2023-05-04T00:29:07.622Z,48681.41
2023-05-04T00:31:35.176Z,48683.34
2023-05-04T00:34:02.477Z,48657.88
2023-05-04T00:36:29.192Z,48657.88
2023-05-04T00:38:56.289Z,48683.34
2023-05-04T00:41:23.292Z,48655.94
2023-05-04T00:43:50.592Z,48659.84
2023-05-04T00:46:17.444Z,48659.84
2023-05-04T00:48:48.875Z,48671.59
2023-05-04T00:51:16.885Z,48644.16
2023-05-04T00:53:44.273Z,48695.09
2023-05-04T00:56:11.799Z,48659.84
2023-05-04T00:58:39.211Z,48657.88
2023-05-04T01:01:05.958Z,48679.44
2023-05-04T01:03:33.817Z,48673.56
2023-05-04T01:06:30.703Z,48665.72
2023-05-04T01:09:11.139Z,48663.75
2023-05-04T01:11:44.588Z,48655.94
2023-05-04T01:14:14.970Z,48675.50
2023-05-04T01:16:41.507Z,48689.22
2023-05-04T01:19:08.459Z,48663.75
2023-05-04T01:21:37.143Z,48677.47
2023-05-04T01:24:04.162Z,48659.84
2023-05-04T01:26:36.818Z,48667.69
2023-05-04T01:29:14.582Z,48667.69
2023-05-04T01:31:43.383Z,48665.72
2023-05-04T01:34:11.318Z,48652.00
2023-05-04T01:36:38.807Z,48659.84
2023-05-04T01:39:05.954Z,48648.09
2023-05-04T01:41:32.638Z,48652.00
2023-05-04T01:44:00.397Z,48663.75
2023-05-04T01:46:30.053Z,48659.84
2023-05-04T01:48:56.548Z,48663.75
2023-05-04T01:51:22.997Z,48659.84
2023-05-04T01:53:49.687Z,48620.66
2023-05-04T01:56:16.608Z,48663.75
2023-05-04T01:58:43.027Z,48652.00
2023-05-04T02:01:09.496Z,48671.59
2023-05-04T02:03:36.472Z,48659.84
2023-05-04T02:06:03.122Z,48663.75
2023-05-04T02:08:31.438Z,48671.59
2023-05-04T02:10:58.252Z,48655.94
2023-05-04T02:13:24.958Z,48644.16
2023-05-04T02:15:52.149Z,48657.88
2023-05-04T02:18:18.627Z,48642.22
2023-05-04T02:20:45.297Z,48638.28
2023-05-04T02:23:11.704Z,48644.16
2023-05-04T02:25:44.376Z,48657.88
2023-05-04T02:28:11.089Z,48663.75
2023-05-04T02:30:37.889Z,48648.09
2023-05-04T02:33:04.507Z,48659.84
2023-05-04T02:35:31.881Z,48640.25
2023-05-04T02:37:58.409Z,48644.16
2023-05-04T02:40:25.125Z,48671.59
2023-05-04T02:42:52.175Z,48661.81
2023-05-04T02:45:18.918Z,48648.09
2023-05-04T02:47:46.642Z,48663.75
2023-05-04T02:50:16.904Z,48646.13
2023-05-04T02:52:45.752Z,48659.84
2023-05-04T02:55:12.796Z,48655.94
2023-05-04T02:57:39.808Z,48661.81
2023-05-04T03:00:07.457Z,48657.88
2023-05-04T03:02:36.777Z,48659.84
2023-05-04T03:05:03.495Z,48655.94
2023-05-04T03:07:30.317Z,48646.13
2023-05-04T03:09:57.029Z,48665.72
2023-05-04T03:12:27.247Z,48650.06
2023-05-04T03:14:53.667Z,48653.97
2023-05-04T03:17:21.621Z,48650.06
2023-05-04T03:19:48.052Z,48661.81
2023-05-04T03:22:15.128Z,48659.84
2023-05-04T03:24:41.578Z,48634.38
2023-05-04T03:27:08.278Z,48659.84
2023-05-04T03:29:35.583Z,48667.69
2023-05-04T03:32:06.117Z,48636.34
2023-05-04T03:34:32.690Z,48655.94
2023-05-04T03:37:01.115Z,48655.94
2023-05-04T03:39:27.630Z,48657.88
2023-05-04T03:41:54.157Z,48632.41
2023-05-04T03:44:20.884Z,48653.97
2023-05-04T03:46:47.346Z,48655.94
2023-05-04T03:49:14.146Z,48652.00
2023-05-04T03:51:41.312Z,48663.75
2023-05-04T03:54:08.315Z,48657.88
2023-05-04T03:56:35.000Z,48644.16
2023-05-04T03:59:02.233Z,48659.84
2023-05-04T04:01:28.790Z,48636.34
2023-05-04T04:03:55.552Z,48638.28
2023-05-04T04:06:23.030Z,48640.25
2023-05-04T04:08:51.038Z,48620.66
2023-05-04T04:11:17.729Z,48659.84
2023-05-04T04:13:44.202Z,48644.16
2023-05-04T04:16:10.924Z,48644.16
2023-05-04T04:18:38.129Z,48628.50
2023-05-04T04:21:04.579Z,48640.25
2023-05-04T04:23:30.998Z,48632.41
2023-05-04T04:25:58.425Z,48638.28
2023-05-04T04:28:24.883Z,48636.34
2023-05-04T04:30:51.664Z,48638.28
2023-05-04T04:33:18.108Z,48648.09
2023-05-04T04:35:45.369Z,48648.09
2023-05-04T04:38:12.216Z,48632.41
2023-05-04T04:40:38.640Z,48663.75
2023-05-04T04:43:05.874Z,48636.34
2023-05-04T04:45:33.793Z,48640.25
2023-05-04T04:48:01.255Z,48628.50
2023-05-04T04:50:29.495Z,48655.94
2023-05-04T04:52:56.339Z,48642.22
2023-05-04T04:55:23.950Z,48636.34
2023-05-04T04:57:51.219Z,48628.50
2023-05-04T05:00:18.593Z,48644.16
2023-05-04T05:02:45.650Z,48679.44
2023-05-04T05:05:13.292Z,48628.50
2023-05-04T05:07:40.059Z,48638.28
2023-05-04T05:10:08.947Z,48644.16
2023-05-04T05:12:35.761Z,48648.09
2023-05-04T05:15:04.443Z,48673.56
2023-05-04T05:17:31.401Z,48659.84
2023-05-04T05:19:58.130Z,48636.34
2023-05-04T05:22:24.855Z,48644.16
2023-05-04T05:24:51.536Z,48663.75
2023-05-04T05:27:18.301Z,48620.66
2023-05-04T05:29:45.122Z,48659.84
2023-05-04T05:32:11.908Z,48644.16
2023-05-04T05:34:38.973Z,48652.00
2023-05-04T05:37:06.055Z,48636.34
2023-05-04T05:39:32.764Z,48653.97
2023-05-04T05:41:59.686Z,48669.63
2023-05-04T05:44:26.525Z,48653.97
2023-05-04T05:46:53.205Z,48677.47
2023-05-04T05:49:19.790Z,48646.13
2023-05-04T05:51:46.855Z,48663.75
2023-05-04T05:54:13.593Z,48681.41
2023-05-04T05:56:40.308Z,48667.69
2023-05-04T05:59:07.630Z,48687.28
2023-05-04T06:01:34.376Z,48648.09
2023-05-04T06:04:01.341Z,48671.59
2023-05-04T06:06:27.884Z,48661.81
2023-05-04T06:08:57.536Z,48687.28
2023-05-04T06:11:24.148Z,48683.34
2023-05-04T06:13:50.645Z,48663.75
2023-05-04T06:16:17.258Z,48691.19
2023-05-04T06:18:43.823Z,48687.28
2023-05-04T06:21:11.268Z,48695.09
2023-05-04T06:23:37.925Z,48683.34
2023-05-04T06:26:06.167Z,48679.44
2023-05-04T06:28:32.890Z,48687.28
2023-05-04T06:30:59.434Z,48665.72
2023-05-04T06:33:27.561Z,48699.03
2023-05-04T06:35:54.311Z,48648.09
2023-05-04T06:38:21.576Z,48699.03
2023-05-04T06:40:48.632Z,48683.34
2023-05-04T06:43:15.362Z,48665.72
2023-05-04T06:45:43.242Z,48683.34
2023-05-04T06:48:09.984Z,48679.44
2023-05-04T06:50:36.506Z,48683.34
2023-05-04T06:53:04.830Z,48653.97
2023-05-04T06:55:32.112Z,48659.84
2023-05-04T06:57:58.644Z,48667.69
2023-05-04T07:00:26.149Z,48677.47
2023-05-04T07:02:53.915Z,48663.75
2023-05-04T07:05:24.207Z,48695.09
2023-05-04T07:07:51.476Z,48671.59
2023-05-04T07:10:19.428Z,48691.19
2023-05-04T07:12:46.718Z,48667.69
2023-05-04T07:15:13.213Z,48683.34
2023-05-04T07:17:40.465Z,48687.28
2023-05-04T07:20:07.737Z,48675.50
2023-05-04T07:22:34.576Z,48677.47
2023-05-04T07:25:03.392Z,48702.94
2023-05-04T07:27:30.692Z,48683.34
2023-05-04T07:29:57.599Z,48699.03
2023-05-04T07:32:24.553Z,48695.09
2023-05-04T07:34:51.183Z,48695.09
2023-05-04T07:37:20.208Z,48718.59
2023-05-04T07:39:46.995Z,48706.84
2023-05-04T07:42:13.720Z,48718.59
2023-05-04T07:44:41.316Z,48699.03
2023-05-04T07:47:07.872Z,48706.84
2023-05-04T07:49:34.354Z,48726.44
2023-05-04T07:52:00.949Z,48710.78
2023-05-04T07:54:27.414Z,48722.53
2023-05-04T07:56:53.901Z,48691.19
2023-05-04T07:59:21.009Z,48714.69
2023-05-04T08:01:48.253Z,48730.38
2023-05-04T08:04:14.676Z,48716.66
2023-05-04T08:06:42.004Z,48718.59
2023-05-04T08:09:09.284Z,48720.56
2023-05-04T08:11:36.085Z,48718.59
2023-05-04T08:14:02.897Z,48667.69
2023-05-04T08:16:30.050Z,48710.78
2023-05-04T08:18:57.538Z,48710.78
2023-05-04T08:21:24.226Z,48700.97
2023-05-04T08:23:51.506Z,48708.81
2023-05-04T08:26:17.917Z,48714.69
2023-05-04T08:28:46.171Z,48718.59
2023-05-04T08:31:13.403Z,48691.19
2023-05-04T08:33:40.343Z,48710.78
2023-05-04T08:36:08.423Z,48710.78
2023-05-04T08:38:35.459Z,48706.84
2023-05-04T08:41:06.525Z,48695.09
2023-05-04T08:43:36.728Z,48718.59
2023-05-04T08:46:05.427Z,48691.19
2023-05-04T08:48:34.019Z,48706.84
2023-05-04T08:51:02.026Z,48734.28
2023-05-04T08:53:31.460Z,48714.69
2023-05-04T08:56:04.743Z,48699.03
2023-05-04T08:58:31.804Z,48722.53
2023-05-04T09:01:01.304Z,48714.69
2023-05-04T09:03:29.743Z,48695.09
2023-05-04T09:05:58.836Z,48699.03
2023-05-04T09:08:25.594Z,48710.78
2023-05-04T09:10:52.319Z,48726.44
2023-05-04T09:13:18.863Z,48722.53
2023-05-04T09:15:59.175Z,48720.56
2023-05-04T09:18:43.700Z,48712.72
2023-05-04T09:21:11.832Z,48704.91
2023-05-04T09:23:54.040Z,48695.09
2023-05-04T09:26:27.894Z,48726.44
2023-05-04T09:28:54.634Z,48726.44
2023-05-04T09:31:21.430Z,48718.59
2023-05-04T09:33:48.106Z,48695.09
2023-05-04T09:36:17.393Z,48718.59
2023-05-04T09:38:44.396Z,48710.78
2023-05-04T09:41:10.931Z,48714.69
2023-05-04T09:43:41.829Z,48697.06
2023-05-04T09:46:17.222Z,48706.84
2023-05-04T09:48:55.080Z,48714.69
2023-05-04T09:51:27.308Z,48708.81
2023-05-04T09:53:54.068Z,48710.78
2023-05-04T09:56:29.731Z,48699.03
2023-05-04T09:59:00.237Z,48722.53
2023-05-04T10:01:30.981Z,48706.84
2023-05-04T10:03:58.224Z,48693.16
2023-05-04T10:06:24.989Z,48718.59
2023-05-04T10:08:52.252Z,48734.28
2023-05-04T10:11:20.263Z,48706.84
2023-05-04T10:13:49.723Z,48730.38
2023-05-04T10:16:54.101Z,48710.78
2023-05-04T10:20:05.812Z,48718.59
2023-05-04T10:22:47.683Z,48702.94
2023-05-04T10:25:35.473Z,48744.06
2023-05-04T10:28:23.651Z,48722.53
2023-05-04T10:30:56.971Z,48722.53
2023-05-04T10:33:24.399Z,48742.13
2023-05-04T10:35:55.436Z,48718.59
2023-05-04T10:38:39.438Z,48724.50
2023-05-04T10:41:20.518Z,48691.19
2023-05-04T10:43:53.516Z,48704.91
2023-05-04T10:46:23.985Z,48710.78
2023-05-04T10:48:59.483Z,48722.53
2023-05-04T10:51:35.696Z,48738.19
2023-05-04T10:54:18.020Z,48738.19
2023-05-04T10:56:44.447Z,48720.56
2023-05-04T10:59:11.017Z,48716.66
2023-05-04T11:01:46.579Z,48734.28
2023-05-04T11:04:22.929Z,48699.03
2023-05-04T11:07:03.415Z,48734.28
2023-05-04T11:09:38.996Z,48757.78
2023-05-04T11:12:07.096Z,48755.84
2023-05-04T11:14:38.059Z,48730.38
2023-05-04T11:17:27.731Z,48742.13
2023-05-04T11:19:55.937Z,48730.38
2023-05-04T11:22:22.542Z,48714.69
2023-05-04T11:24:49.255Z,48734.28
2023-05-04T11:27:25.576Z,48722.53
2023-05-04T11:30:04.768Z,48734.28
2023-05-04T11:32:46.943Z,48726.44
2023-05-04T11:35:18.880Z,48738.19
2023-05-04T11:37:48.240Z,48718.59
2023-05-04T11:40:21.326Z,48730.38
2023-05-04T11:42:50.243Z,48710.78
2023-05-04T11:45:18.133Z,48720.56
2023-05-04T11:47:47.225Z,48738.19
2023-05-04T11:50:17.042Z,48734.28
2023-05-04T11:52:44.769Z,48742.13
2023-05-04T11:55:13.495Z,48734.28
2023-05-04T11:57:40.354Z,48746.03
2023-05-04T12:00:08.706Z,48726.44
2023-05-04T12:02:36.179Z,48738.19
2023-05-04T12:05:03.412Z,48761.72
2023-05-04T12:07:29.941Z,48753.88
2023-05-04T12:09:57.374Z,48718.59
2023-05-04T12:12:35.217Z,48753.88
2023-05-04T12:15:02.006Z,48742.13
2023-05-04T12:17:39.504Z,48746.03
2023-05-04T12:20:06.664Z,48726.44
2023-05-04T12:22:35.438Z,48736.25
2023-05-04T12:25:02.663Z,48761.72
2023-05-04T12:27:29.071Z,48724.50
2023-05-04T12:29:55.991Z,48742.13
2023-05-04T12:32:22.570Z,48734.28
2023-05-04T12:34:49.113Z,48753.88
2023-05-04T12:37:15.849Z,48742.13
2023-05-04T12:39:42.606Z,48746.03
2023-05-04T12:42:09.112Z,48746.03
2023-05-04T12:44:35.716Z,48720.56
2023-05-04T12:47:02.100Z,48742.13
2023-05-04T12:49:28.486Z,48722.53
2023-05-04T12:51:57.776Z,48730.38
2023-05-04T12:54:24.586Z,48722.53
2023-05-04T12:56:51.364Z,48765.63
2023-05-04T12:59:18.069Z,48757.78
2023-05-04T13:01:44.653Z,48732.31
2023-05-04T13:04:11.141Z,48734.28
2023-05-04T13:06:37.749Z,48765.63
2023-05-04T13:09:06.187Z,48753.88
2023-05-04T13:11:32.701Z,48742.13
2023-05-04T13:13:59.413Z,48742.13
2023-05-04T13:16:28.167Z,48742.13
2023-05-04T13:18:55.574Z,48742.13
2023-05-04T13:21:22.645Z,48724.50
2023-05-04T13:23:49.328Z,48759.75
2023-05-04T13:26:16.008Z,48738.19
2023-05-04T13:28:42.642Z,48742.13
2023-05-04T13:31:10.174Z,48775.41
2023-05-04T13:33:38.932Z,48757.78
2023-05-04T13:36:07.041Z,48765.63
2023-05-04T13:38:33.785Z,48730.38
2023-05-04T13:41:00.297Z,48761.72
2023-05-04T13:43:27.113Z,48744.06
2023-05-04T13:45:53.543Z,48746.03
2023-05-04T13:48:20.401Z,48765.63
2023-05-04T13:50:46.902Z,48777.38
2023-05-04T13:53:14.126Z,48746.03
2023-05-04T13:55:40.951Z,48769.53
2023-05-04T13:58:07.473Z,48777.38
2023-05-04T14:00:33.926Z,48761.72
2023-05-04T14:03:00.875Z,48753.88
2023-05-04T14:05:27.641Z,48767.59
2023-05-04T14:07:54.110Z,48777.38
2023-05-04T14:10:21.346Z,48746.03
2023-05-04T14:12:48.096Z,48732.31
2023-05-04T14:15:16.662Z,48744.06
2023-05-04T14:17:43.564Z,48757.78
2023-05-04T14:20:13.208Z,48738.19
2023-05-04T14:22:42.064Z,48775.41
2023-05-04T14:25:09.573Z,48773.47
2023-05-04T14:27:36.301Z,48734.28
2023-05-04T14:30:04.105Z,48753.88
2023-05-04T14:32:30.923Z,48767.59
2023-05-04T14:35:06.658Z,48773.47
2023-05-04T14:37:36.772Z,48746.03
2023-05-04T14:40:13.570Z,48775.41
2023-05-04T14:42:40.702Z,48753.88
2023-05-04T14:45:08.433Z,48757.78
2023-05-04T14:47:35.325Z,48761.72
2023-05-04T14:50:03.329Z,48775.41
2023-05-04T14:52:29.816Z,48789.13
2023-05-04T14:54:56.269Z,48765.63
2023-05-04T14:57:22.685Z,48761.72
2023-05-04T14:59:49.196Z,48753.88
2023-05-04T15:02:16.420Z,48734.28
2023-05-04T15:04:44.098Z,48726.44
2023-05-04T15:07:10.686Z,48753.88
2023-05-04T15:09:38.193Z,48759.75
2023-05-04T15:12:05.074Z,48769.53
2023-05-04T15:14:31.828Z,48742.13
2023-05-04T15:16:58.622Z,48759.75
2023-05-04T15:19:25.131Z,48742.13
2023-05-04T15:21:51.930Z,48769.53
2023-05-04T15:24:18.696Z,48740.16
2023-05-04T15:26:46.277Z,48765.63
2023-05-04T15:29:12.884Z,48710.78
2023-05-04T15:31:39.547Z,48742.13
2023-05-04T15:34:06.001Z,48765.63
2023-05-04T15:36:32.433Z,48746.03
2023-05-04T15:38:58.858Z,48765.63
2023-05-04T15:41:26.498Z,48734.28
2023-05-04T15:43:52.956Z,48765.63
2023-05-04T15:46:19.807Z,48773.47
2023-05-04T15:48:46.196Z,48761.72
2023-05-04T15:51:12.697Z,48781.31
2023-05-04T15:53:39.719Z,48761.72
2023-05-04T15:56:06.505Z,48738.19
2023-05-04T15:58:33.606Z,48755.84
2023-05-04T16:01:04.159Z,48765.63
2023-05-04T16:03:32.040Z,48757.78
2023-05-04T16:05:58.841Z,48761.72
2023-05-04T16:08:25.899Z,48722.53
2023-05-04T16:10:53.503Z,48769.53
2023-05-04T16:13:20.941Z,48746.03
2023-05-04T16:15:52.631Z,48765.63
2023-05-04T16:18:19.545Z,48765.63
2023-05-04T16:20:47.370Z,48793.06
2023-05-04T16:23:17.749Z,48734.28
2023-05-04T16:25:44.430Z,48777.38
2023-05-04T16:28:11.190Z,48734.28
2023-05-04T16:30:38.194Z,48753.88
2023-05-04T16:33:04.834Z,48742.13
2023-05-04T16:35:32.635Z,48753.88
2023-05-04T16:37:59.352Z,48761.72
2023-05-04T16:40:26.630Z,48746.03
2023-05-04T16:42:53.014Z,48734.28
2023-05-04T16:45:19.724Z,48757.78
2023-05-04T16:47:46.931Z,48746.03
2023-05-04T16:50:14.284Z,48746.03
2023-05-04T16:52:41.243Z,48718.59
2023-05-04T16:55:11.360Z,48738.19
2023-05-04T16:57:38.718Z,48742.13
2023-05-04T17:00:07.069Z,48738.19
2023-05-04T17:02:34.007Z,48753.88
2023-05-04T17:05:00.788Z,48755.84
2023-05-04T17:07:27.495Z,48738.19
2023-05-04T17:09:54.157Z,48746.03
2023-05-04T17:12:23.204Z,48720.56
2023-05-04T17:14:50.083Z,48757.78
2023-05-04T17:17:16.636Z,48738.19
2023-05-04T17:19:43.146Z,48734.28
2023-05-04T17:22:11.409Z,48726.44
2023-05-04T17:24:37.914Z,48742.13
2023-05-04T17:27:05.005Z,48765.63
2023-05-04T17:29:31.692Z,48755.84
2023-05-04T17:31:58.288Z,48734.28
2023-05-04T17:34:25.087Z,48738.19
2023-05-04T17:36:51.610Z,48732.31
2023-05-04T17:39:18.709Z,48699.03
2023-05-04T17:41:48.803Z,48710.78
2023-05-04T17:44:16.591Z,48746.03
2023-05-04T17:46:43.254Z,48730.38
2023-05-04T17:49:10.581Z,48714.69
2023-05-04T17:51:37.426Z,48726.44
2023-05-04T17:54:03.991Z,48746.03
2023-05-04T17:56:30.763Z,48726.44
2023-05-04T17:58:57.128Z,48734.28
2023-05-04T18:01:26.859Z,48726.44
2023-05-04T18:03:53.996Z,48734.28
2023-05-04T18:06:20.476Z,48746.03
2023-05-04T18:08:46.973Z,48704.91
2023-05-04T18:11:13.487Z,48746.03
2023-05-04T18:13:39.915Z,48753.88
2023-05-04T18:16:07.364Z,48710.78
2023-05-04T18:18:33.830Z,48710.78
2023-05-04T18:21:01.340Z,48722.53
2023-05-04T18:23:28.383Z,48730.38
2023-05-04T18:25:55.551Z,48706.84
2023-05-04T18:28:22.300Z,48699.03
2023-05-04T18:30:48.967Z,48714.69
2023-05-04T18:33:15.400Z,48720.56
2023-05-04T18:35:41.951Z,48714.69
2023-05-04T18:38:08.396Z,48722.53
2023-05-04T18:40:34.897Z,48691.19
2023-05-04T18:43:03.628Z,48702.94
2023-05-04T18:45:30.072Z,48718.59
2023-05-04T18:47:56.850Z,48714.69
2023-05-04T18:50:23.534Z,48708.81
2023-05-04T18:52:50.221Z,48716.66
2023-05-04T18:55:16.722Z,48695.09
2023-05-04T18:57:43.659Z,48697.06
2023-05-04T19:00:11.635Z,48720.56
2023-05-04T19:02:38.504Z,48714.69
2023-05-04T19:05:05.547Z,48714.69
2023-05-04T19:07:32.615Z,48730.38
2023-05-04T19:10:00.073Z,48683.34
2023-05-04T19:12:27.135Z,48695.09
2023-05-04T19:14:54.578Z,48695.09
2023-05-04T19:17:21.182Z,48706.84
2023-05-04T19:19:47.625Z,48712.72
2023-05-04T19:22:15.789Z,48699.03
2023-05-04T19:24:42.306Z,48714.69
2023-05-04T19:27:09.369Z,48700.97
2023-05-04T19:29:36.162Z,48675.50
2023-05-04T19:32:12.137Z,48714.69
2023-05-04T19:34:46.655Z,48679.44
2023-05-04T19:37:13.337Z,48702.94
2023-05-04T19:39:40.111Z,48704.91
2023-05-04T19:42:06.550Z,48702.94
2023-05-04T19:44:33.273Z,48710.78
2023-05-04T19:47:01.778Z,48718.59
2023-05-04T19:49:28.352Z,48699.03
2023-05-04T19:51:54.872Z,48699.03
2023-05-04T19:54:21.274Z,48702.94
2023-05-04T19:56:47.971Z,48722.53
2023-05-04T19:59:15.086Z,48695.09
2023-05-04T20:01:43.791Z,48663.75
2023-05-04T20:04:10.796Z,48683.34
2023-05-04T20:06:37.420Z,48689.22
2023-05-04T20:09:04.124Z,48687.28
2023-05-04T20:11:30.873Z,48714.69
2023-05-04T20:13:57.623Z,48710.78
2023-05-04T20:16:24.153Z,48679.44
2023-05-04T20:18:50.918Z,48671.59
2023-05-04T20:21:17.670Z,48683.34
2023-05-04T20:23:44.368Z,48702.94
2023-05-04T20:26:10.818Z,48687.28
2023-05-04T20:28:37.512Z,48695.09
2023-05-04T20:31:04.997Z,48687.28
2023-05-04T20:33:31.431Z,48667.69
2023-05-04T20:35:58.270Z,48675.50
2023-05-04T20:38:25.460Z,48667.69
2023-05-04T20:40:52.685Z,48691.19
2023-05-04T20:43:19.805Z,48675.50
2023-05-04T20:45:48.838Z,48648.09
2023-05-04T20:48:15.268Z,48675.50
2023-05-04T20:50:42.615Z,48693.16
2023-05-04T20:53:09.019Z,48659.84
2023-05-04T20:55:36.707Z,48675.50
2023-05-04T20:58:03.196Z,48702.94
2023-05-04T21:00:31.860Z,48675.50
2023-05-04T21:03:00.177Z,48671.59
2023-05-04T21:05:27.995Z,48700.97
2023-05-04T21:07:54.632Z,48675.50
2023-05-04T21:10:21.179Z,48675.50
2023-05-04T21:12:49.085Z,48679.44
2023-05-04T21:15:17.820Z,48716.66
2023-05-04T21:17:44.526Z,48689.22
2023-05-04T21:20:11.149Z,48722.53
2023-05-04T21:22:37.577Z,48687.28
2023-05-04T21:25:04.587Z,48683.34
2023-05-04T21:27:31.038Z,48671.59
2023-05-04T21:29:58.420Z,48675.50
2023-05-04T21:32:25.145Z,48679.44
2023-05-04T21:34:52.628Z,48661.81
2023-05-04T21:37:19.603Z,48679.44
2023-05-04T21:39:46.557Z,48685.31
2023-05-04T21:42:13.307Z,48671.59
2023-05-04T21:44:39.752Z,48671.59
2023-05-04T21:47:07.489Z,48699.03
2023-05-04T21:49:34.209Z,48667.69
2023-05-04T21:52:00.747Z,48681.41
2023-05-04T21:54:27.488Z,48671.59
2023-05-04T21:56:54.145Z,48671.59
2023-05-04T21:59:20.712Z,48652.00
2023-05-04T22:01:47.422Z,48669.63
2023-05-04T22:04:15.674Z,48661.81
2023-05-04T22:06:42.053Z,48699.03
2023-05-04T22:09:09.008Z,48655.94
2023-05-04T22:11:36.020Z,48642.22
2023-05-04T22:14:03.023Z,48652.00
2023-05-04T22:16:29.469Z,48675.50
2023-05-04T22:18:56.221Z,48669.63
2023-05-04T22:21:22.698Z,48679.44
2023-05-04T22:23:49.395Z,48667.69
2023-05-04T22:26:15.973Z,48689.22
2023-05-04T22:28:42.449Z,48652.00
2023-05-04T22:31:09.037Z,48663.75
2023-05-04T22:33:36.670Z,48650.06
2023-05-04T22:36:03.354Z,48663.75
2023-05-04T22:38:32.430Z,48659.84
2023-05-04T22:40:59.164Z,48659.84
2023-05-04T22:43:26.191Z,48652.00
2023-05-04T22:45:52.974Z,48655.94
2023-05-04T22:48:20.080Z,48655.94
2023-05-04T22:50:47.108Z,48653.97
2023-05-04T22:53:15.343Z,48663.75
2023-05-04T22:55:41.816Z,48659.84
2023-05-04T22:58:08.815Z,48655.94
2023-05-04T23:00:35.397Z,48685.31
2023-05-04T23:03:02.211Z,48663.75
2023-05-04T23:05:29.114Z,48667.69
2023-05-04T23:07:55.498Z,48652.00
2023-05-04T23:10:22.252Z,48652.00
2023-05-04T23:12:48.980Z,48671.59
2023-05-04T23:15:15.711Z,48644.16
2023-05-04T23:17:42.215Z,48652.00
2023-05-04T23:20:10.326Z,48628.50
2023-05-04T23:22:37.214Z,48640.25
2023-05-04T23:25:04.557Z,48659.84
2023-05-04T23:27:31.260Z,48653.97
2023-05-04T23:29:57.925Z,48667.69
2023-05-04T23:32:25.211Z,48652.00
2023-05-04T23:34:51.939Z,48648.09
2023-05-04T23:37:18.617Z,48671.59
2023-05-04T23:39:47.018Z,48655.94
2023-05-04T23:42:13.734Z,48659.84
2023-05-04T23:44:40.751Z,48646.13
2023-05-04T23:47:07.943Z,48636.34
2023-05-04T23:49:34.609Z,48646.13
2023-05-04T23:52:01.096Z,48659.84
2023-05-04T23:54:27.576Z,48652.00
2023-05-04T23:56:55.291Z,48640.25
2023-05-04T23:59:22.436Z,48642.22
